Time;durP1;ratioP1;P1;durP2;ratioP2;P2;SDS_P1;SDS_P2;PMS_P1;PMS_P2;Temp;Humidity;BMP_temperature;BMP_pressure;BME280_temperature;BME280_humidity;BME280_pressure;Samples;Min_cycle;Max_cycle;Signal;HPM_P1;HPM_P2
2020/12/05 00:00:55;;;;;;;7.97;4.40;;;1.60;99.90;;;;;;5051230;28;20048;-90
2020/12/05 00:03:23;;;;;;;7.47;3.83;;;1.50;99.90;;;;;;5051225;28;20024;-90
2020/12/05 00:05:49;;;;;;;6.63;4.00;;;1.50;99.90;;;;;;5051082;28;20025;-88
2020/12/05 00:08:14;;;;;;;7.05;3.95;;;1.50;99.90;;;;;;5052021;28;20024;-89
2020/12/05 00:10:42;;;;;;;5.93;3.78;;;1.50;99.90;;;;;;5050794;28;20033;-89
2020/12/05 00:13:07;;;;;;;6.60;4.15;;;1.60;99.90;;;;;;5050391;28;20067;-89
2020/12/05 00:15:33;;;;;;;6.82;4.15;;;1.60;99.90;;;;;;5050439;28;20928;-89
2020/12/05 00:17:59;;;;;;;5.78;3.92;;;1.60;99.90;;;;;;5049447;28;20033;-89
2020/12/05 00:20:24;;;;;;;6.18;3.72;;;1.60;99.90;;;;;;5050882;28;20457;-89
2020/12/05 00:22:51;;;;;;;7.00;4.07;;;1.60;99.90;;;;;;5051378;28;20429;-89
2020/12/05 00:25:16;;;;;;;5.90;3.67;;;1.60;99.90;;;;;;5050176;28;20028;-89
2020/12/05 00:27:42;;;;;;;6.30;3.47;;;1.70;99.90;;;;;;5033166;28;20037;-89
2020/12/05 00:30:08;;;;;;;6.22;3.97;;;1.70;99.90;;;;;;5051031;28;20028;-90
2020/12/05 00:32:33;;;;;;;5.60;4.05;;;1.70;99.90;;;;;;5049833;28;20907;-89
2020/12/05 00:34:59;;;;;;;6.32;3.95;;;1.70;99.90;;;;;;5049969;28;20068;-89
2020/12/05 00:37:31;;;;;;;7.40;3.78;;;1.70;99.90;;;;;;5051219;28;20020;-88
2020/12/05 00:39:57;;;;;;;5.90;3.72;;;1.70;99.90;;;;;;5049264;28;20040;-88
2020/12/05 00:42:24;;;;;;;7.10;4.50;;;1.70;99.90;;;;;;5049672;28;20044;-88
2020/12/05 00:44:50;;;;;;;5.93;3.88;;;1.70;99.90;;;;;;5049742;28;20025;-88
2020/12/05 00:47:17;;;;;;;7.30;4.00;;;1.70;99.90;;;;;;5049199;28;20034;-89
2020/12/05 00:49:44;;;;;;;6.45;3.80;;;1.60;99.90;;;;;;5048660;28;20141;-89
2020/12/05 00:52:09;;;;;;;6.03;3.70;;;1.60;99.90;;;;;;5049384;28;20111;-89
2020/12/05 00:54:35;;;;;;;6.03;3.90;;;1.60;99.90;;;;;;5050869;28;20100;-88
2020/12/05 00:57:01;;;;;;;5.60;3.20;;;1.60;99.90;;;;;;5050743;28;20493;-88
2020/12/05 00:59:26;;;;;;;5.57;3.05;;;1.60;99.90;;;;;;5049737;28;20129;-88
2020/12/05 01:01:54;;;;;;;5.05;3.35;;;1.50;99.90;;;;;;5049316;28;20037;-88
2020/12/05 01:04:19;;;;;;;5.75;3.20;;;1.50;99.90;;;;;;5049013;28;20112;-88
2020/12/05 01:06:46;;;;;;;5.30;3.25;;;1.50;99.90;;;;;;5049448;28;20116;-89
2020/12/05 01:09:13;;;;;;;7.55;3.08;;;1.50;99.90;;;;;;5049027;28;20029;-88
2020/12/05 01:11:38;;;;;;;6.00;3.78;;;1.40;99.90;;;;;;5032005;28;20131;-89
2020/12/05 01:14:04;;;;;;;5.80;3.30;;;1.40;99.90;;;;;;5049457;28;20041;-89
2020/12/05 01:16:31;;;;;;;5.97;3.65;;;1.40;99.90;;;;;;5032485;28;20032;-88
2020/12/05 01:18:57;;;;;;;8.35;3.92;;;1.30;99.90;;;;;;5049048;28;20217;-89
2020/12/05 01:21:22;;;;;;;7.45;4.60;;;1.30;99.90;;;;;;5048598;28;20033;-88
2020/12/05 01:23:48;;;;;;;5.95;3.80;;;1.20;99.90;;;;;;5048689;28;20025;-88
2020/12/05 01:26:14;;;;;;;5.38;3.53;;;1.20;99.90;;;;;;5048815;28;20486;-89
2020/12/05 01:28:39;;;;;;;6.43;3.88;;;1.20;99.90;;;;;;5048510;28;20307;-89
2020/12/05 01:31:06;;;;;;;6.43;3.95;;;1.10;99.90;;;;;;5048389;28;20045;-90
2020/12/05 01:33:32;;;;;;;6.78;3.72;;;1.10;99.90;;;;;;5032188;28;20047;-90
2020/12/05 01:36:01;;;;;;;5.90;3.63;;;1.10;99.90;;;;;;5048964;28;20059;-90
2020/12/05 01:38:28;;;;;;;5.88;3.28;;;1.10;99.90;;;;;;5031033;28;20025;-90
2020/12/05 01:40:57;;;;;;;6.63;3.55;;;1.10;99.90;;;;;;5048799;28;20040;-91
2020/12/05 01:43:24;;;;;;;5.55;3.42;;;1.10;99.90;;;;;;5048640;28;20021;-90
2020/12/05 01:45:50;;;;;;;6.65;3.72;;;1.10;99.90;;;;;;5048416;28;20017;-90
2020/12/05 01:48:18;;;;;;;6.15;3.38;;;1.10;99.90;;;;;;5031668;28;20057;-90
2020/12/05 01:50:45;;;;;;;5.45;3.22;;;1.10;99.90;;;;;;5048016;28;20469;-90
2020/12/05 01:53:13;;;;;;;6.80;3.72;;;1.10;99.90;;;;;;5048045;28;20029;-90
2020/12/05 01:55:43;;;;;;;5.35;3.40;;;1.10;99.90;;;;;;5031755;28;20025;-91
2020/12/05 01:58:09;;;;;;;6.85;3.30;;;1.20;99.90;;;;;;5033110;28;20029;-90
2020/12/05 02:00:34;;;;;;;5.88;3.97;;;1.20;99.90;;;;;;5049687;28;20029;-90
2020/12/05 02:03:00;;;;;;;6.25;3.78;;;1.20;99.90;;;;;;5052257;28;20101;-90
2020/12/05 02:06:08;;;;;;;6.28;3.80;;;1.20;99.90;;;;;;5050527;28;20017;-91
2020/12/05 02:08:45;;;;;;;4.75;3.22;;;1.20;99.90;;;;;;5053205;28;20025;-89
2020/12/05 02:11:15;;;;;;;6.40;3.65;;;1.20;99.90;;;;;;5052927;28;20044;-89
2020/12/05 02:13:46;;;;;;;6.72;3.70;;;1.20;99.90;;;;;;5049653;28;20047;-90
2020/12/05 02:16:15;;;;;;;9.68;4.53;;;1.20;99.90;;;;;;5050752;28;20063;-90
2020/12/05 02:18:43;;;;;;;6.72;3.83;;;1.20;99.90;;;;;;5051215;28;20021;-90
2020/12/05 02:21:11;;;;;;;6.88;4.18;;;1.30;99.90;;;;;;5052884;28;20025;-90
2020/12/05 02:23:37;;;;;;;6.38;3.47;;;1.30;99.90;;;;;;5054157;28;20029;-90
2020/12/05 02:26:09;;;;;;;5.18;3.42;;;1.30;99.90;;;;;;5053148;28;20028;-90
2020/12/05 02:28:34;;;;;;;6.72;4.07;;;1.40;99.90;;;;;;5053806;28;20054;-90
2020/12/05 02:31:00;;;;;;;8.65;5.25;;;1.40;99.90;;;;;;5050910;28;20033;-89
2020/12/05 02:33:26;;;;;;;6.95;3.90;;;1.40;99.90;;;;;;5052365;28;20060;-90
2020/12/05 02:35:52;;;;;;;7.63;4.40;;;1.40;99.90;;;;;;5051296;28;20112;-90
2020/12/05 02:38:24;;;;;;;6.53;4.30;;;1.50;99.90;;;;;;5052272;28;20380;-90
2020/12/05 02:40:51;;;;;;;6.30;3.83;;;1.50;99.90;;;;;;5052140;28;20377;-90
2020/12/05 02:43:17;;;;;;;6.50;3.60;;;1.50;99.90;;;;;;5051635;28;20200;-89
2020/12/05 02:45:46;;;;;;;6.97;3.83;;;1.50;99.90;;;;;;5053746;28;20032;-90
2020/12/05 02:48:11;;;;;;;6.07;3.83;;;1.60;99.90;;;;;;5052494;28;20536;-90
2020/12/05 02:50:37;;;;;;;6.32;3.95;;;1.60;99.90;;;;;;5052631;28;20132;-91
2020/12/05 02:53:04;;;;;;;7.05;4.20;;;1.60;99.90;;;;;;5052626;28;20021;-90
2020/12/05 02:55:29;;;;;;;6.45;3.83;;;1.60;99.90;;;;;;5053818;28;20052;-90
2020/12/05 02:57:55;;;;;;;6.43;3.92;;;1.60;99.90;;;;;;5052724;28;20029;-89
2020/12/05 03:00:21;;;;;;;6.82;3.97;;;1.70;99.90;;;;;;5052751;28;20028;-90
2020/12/05 03:02:47;;;;;;;7.05;4.00;;;1.70;99.90;;;;;;5052651;28;20112;-90
2020/12/05 03:05:13;;;;;;;6.03;3.92;;;1.70;99.90;;;;;;5052844;28;20392;-90
2020/12/05 03:07:40;;;;;;;6.85;3.95;;;1.70;99.90;;;;;;5052672;28;20021;-90
2020/12/05 03:10:06;;;;;;;7.22;3.95;;;1.80;99.90;;;;;;5052699;28;20021;-90
2020/12/05 03:12:31;;;;;;;4.80;3.40;;;1.80;99.90;;;;;;5052114;28;20029;-91
2020/12/05 03:14:57;;;;;;;6.45;3.88;;;1.80;99.90;;;;;;5052655;28;20037;-90
2020/12/05 03:17:23;;;;;;;6.38;4.30;;;1.80;99.90;;;;;;5052674;28;20464;-90
2020/12/05 03:19:48;;;;;;;8.10;4.65;;;1.80;99.90;;;;;;5052621;28;20457;-90
2020/12/05 03:22:14;;;;;;;7.30;4.90;;;1.70;99.90;;;;;;5053831;28;20064;-90
2020/12/05 03:24:40;;;;;;;6.53;4.45;;;1.70;99.90;;;;;;5052509;28;20025;-90
2020/12/05 03:27:05;;;;;;;9.07;4.43;;;1.70;99.90;;;;;;5052444;28;20029;-90
2020/12/05 03:29:32;;;;;;;5.40;3.65;;;1.70;99.90;;;;;;5052478;28;20139;-89
2020/12/05 03:32:01;;;;;;;9.23;4.35;;;1.70;99.90;;;;;;5053616;28;20358;-89
2020/12/05 03:34:27;;;;;;;6.32;4.03;;;1.70;99.90;;;;;;5053605;28;20021;-89
2020/12/05 03:36:53;;;;;;;5.75;3.63;;;1.70;99.90;;;;;;5039356;28;20033;-89
2020/12/05 03:39:18;;;;;;;6.97;3.83;;;1.70;99.90;;;;;;5055981;28;20114;-89
2020/12/05 03:41:44;;;;;;;5.70;3.60;;;1.70;99.90;;;;;;5055692;28;20048;-89
2020/12/05 03:44:10;;;;;;;5.45;3.28;;;1.70;99.90;;;;;;5055899;28;20021;-89
2020/12/05 03:46:35;;;;;;;6.13;3.55;;;1.70;99.90;;;;;;5056878;28;20021;-89
2020/12/05 03:49:01;;;;;;;5.47;3.45;;;1.70;99.90;;;;;;5055484;28;20473;-89
2020/12/05 03:51:27;;;;;;;4.85;3.20;;;1.70;99.90;;;;;;5055648;28;20037;-89
2020/12/05 03:53:53;;;;;;;6.13;3.30;;;1.70;99.90;;;;;;5055923;28;20029;-89
2020/12/05 03:56:19;;;;;;;7.15;3.58;;;1.70;99.90;;;;;;5055816;28;20476;-89
2020/12/05 03:58:45;;;;;;;5.50;3.38;;;1.60;99.90;;;;;;5055801;28;20059;-89
2020/12/05 04:01:13;;;;;;;5.50;3.40;;;1.60;99.90;;;;;;5055162;28;20033;-90
2020/12/05 04:03:39;;;;;;;5.90;3.80;;;1.60;99.90;;;;;;5055353;28;20025;-90
2020/12/05 04:06:05;;;;;;;6.97;3.90;;;1.60;99.90;;;;;;5056542;28;20029;-90
2020/12/05 04:08:30;;;;;;;4.97;2.97;;;1.50;99.90;;;;;;5055263;28;20029;-90
2020/12/05 04:10:56;;;;;;;6.03;3.70;;;1.50;99.90;;;;;;5055322;28;20040;-90
2020/12/05 04:13:23;;;;;;;6.00;3.40;;;1.50;99.90;;;;;;5055207;28;20025;-90
2020/12/05 04:15:48;;;;;;;5.82;3.45;;;1.50;99.90;;;;;;5055337;28;20464;-89
2020/12/05 04:18:15;;;;;;;5.55;3.30;;;1.50;99.90;;;;;;5054965;28;20017;-89
2020/12/05 04:20:41;;;;;;;6.63;3.53;;;1.50;99.90;;;;;;5055139;28;20025;-90
2020/12/05 04:23:07;;;;;;;6.38;3.38;;;1.50;99.90;;;;;;5054905;28;20380;-89
2020/12/05 04:25:33;;;;;;;6.03;3.22;;;1.40;99.90;;;;;;5055063;28;20028;-90
2020/12/05 04:27:58;;;;;;;6.85;3.70;;;1.50;99.90;;;;;;5038706;28;20038;-89
2020/12/05 04:30:24;;;;;;;6.60;3.42;;;1.40;99.90;;;;;;5056466;28;20521;-90
2020/12/05 04:32:50;;;;;;;5.65;3.47;;;1.40;99.90;;;;;;5055286;28;20044;-89
2020/12/05 04:35:15;;;;;;;5.82;3.45;;;1.40;99.90;;;;;;5054674;28;20075;-89
2020/12/05 04:37:41;;;;;;;6.00;3.60;;;1.40;99.90;;;;;;5054810;28;20025;-89
2020/12/05 04:40:07;;;;;;;5.65;3.50;;;1.40;99.90;;;;;;5054707;28;20028;-89
2020/12/05 04:42:33;;;;;;;6.38;3.40;;;1.30;99.90;;;;;;5054588;28;20036;-89
2020/12/05 04:44:58;;;;;;;4.97;3.53;;;1.40;99.90;;;;;;5054933;28;20032;-89
2020/12/05 04:47:25;;;;;;;5.88;3.70;;;1.30;99.90;;;;;;5054638;28;20104;-89
2020/12/05 04:49:55;;;;;;;6.45;4.53;;;1.30;99.90;;;;;;5038012;28;20076;-89
2020/12/05 04:52:26;;;;;;;6.68;4.20;;;1.30;99.90;;;;;;5038063;28;20052;-88
2020/12/05 04:54:54;;;;;;;7.72;4.35;;;1.30;99.90;;;;;;5054234;28;20435;-89
2020/12/05 04:57:25;;;;;;;6.55;4.45;;;1.20;99.90;;;;;;5054251;28;20488;-88
2020/12/05 04:59:53;;;;;;;7.03;3.80;;;1.20;99.90;;;;;;5054432;28;20025;-88
2020/12/05 05:02:35;;;;;;;8.23;4.22;;;1.20;99.90;;;;;;5054455;28;20469;-90
2020/12/05 05:05:01;;;;;;;7.65;3.72;;;1.20;99.90;;;;;;5035346;28;20029;-88
2020/12/05 05:07:31;;;;;;;6.10;3.75;;;1.10;99.90;;;;;;5053891;28;20120;-88
2020/12/05 05:10:06;;;;;;;7.20;3.75;;;1.20;99.90;;;;;;5054218;28;20032;-88
2020/12/05 05:12:33;;;;;;;6.25;3.95;;;1.10;99.90;;;;;;5055078;28;20033;-89
2020/12/05 05:14:59;;;;;;;5.68;3.88;;;1.00;99.90;;;;;;5053987;28;20079;-89
2020/12/05 05:17:24;;;;;;;7.03;3.42;;;1.00;99.90;;;;;;5054065;28;20032;-89
2020/12/05 05:19:50;;;;;;;7.18;4.05;;;0.90;99.90;;;;;;5054018;28;20021;-89
2020/12/05 05:22:23;;;;;;;9.25;4.70;;;0.90;99.90;;;;;;5055096;28;20112;-89
2020/12/05 05:25:06;;;;;;;8.52;4.68;;;0.90;99.90;;;;;;5053785;28;20017;-89
2020/12/05 05:27:32;;;;;;;7.18;5.00;;;0.90;99.90;;;;;;5053948;28;20381;-89
2020/12/05 05:30:09;;;;;;;7.72;4.50;;;0.80;99.90;;;;;;5053742;28;20083;-88
2020/12/05 05:32:42;;;;;;;8.27;4.43;;;0.80;99.90;;;;;;5053711;28;20032;-90
2020/12/05 05:35:12;;;;;;;8.23;5.20;;;0.80;99.90;;;;;;5038543;28;20423;-90
2020/12/05 05:37:39;;;;;;;7.05;4.20;;;0.80;99.90;;;;;;5053665;28;20024;-89
2020/12/05 05:40:07;;;;;;;6.07;4.40;;;0.80;99.90;;;;;;5053623;28;20491;-89
2020/12/05 05:42:42;;;;;;;7.68;3.92;;;0.80;99.90;;;;;;5053321;28;20036;-89
2020/12/05 05:45:17;;;;;;;6.70;4.45;;;0.80;99.90;;;;;;5053478;28;20039;-89
2020/12/05 05:47:44;;;;;;;7.05;4.40;;;0.80;99.90;;;;;;5053323;28;20067;-89
2020/12/05 05:50:45;;;;;;;6.82;5.10;;;0.80;99.90;;;;;;5054749;28;20021;-89
2020/12/05 05:53:21;;;;;;;6.63;4.38;;;0.80;99.90;;;;;;4992946;28;20033;-89
2020/12/05 05:55:48;;;;;;;7.97;5.03;;;0.70;99.90;;;;;;5045688;28;20116;-89
2020/12/05 05:58:16;;;;;;;7.03;4.43;;;0.70;99.90;;;;;;5052406;28;20028;-89
2020/12/05 06:00:47;;;;;;;7.85;5.15;;;0.70;99.90;;;;;;5036449;28;20036;-89
2020/12/05 06:03:23;;;;;;;6.22;4.40;;;0.70;99.90;;;;;;5054529;28;20031;-89
2020/12/05 06:05:54;;;;;;;6.90;4.25;;;0.60;99.90;;;;;;5053276;28;20048;-89
2020/12/05 06:08:21;;;;;;;7.28;4.32;;;0.60;99.90;;;;;;5052950;28;20025;-90
2020/12/05 06:10:59;;;;;;;6.55;4.00;;;0.60;99.90;;;;;;5052914;28;20048;-90
2020/12/05 06:13:27;;;;;;;7.70;5.03;;;0.60;99.90;;;;;;5053735;28;20026;-89
2020/12/05 06:15:53;;;;;;;7.50;4.15;;;0.60;99.90;;;;;;5053104;28;20036;-90
2020/12/05 06:18:20;;;;;;;6.93;4.57;;;0.50;99.90;;;;;;5052635;28;20485;-89
2020/12/05 06:20:46;;;;;;;7.35;4.78;;;0.50;99.90;;;;;;5052795;28;20033;-89
2020/12/05 06:23:24;;;;;;;7.40;4.72;;;0.50;99.90;;;;;;5052994;28;20100;-89
2020/12/05 06:25:52;;;;;;;7.57;4.32;;;0.50;99.90;;;;;;5052913;28;20049;-89
2020/12/05 06:28:19;;;;;;;7.97;4.50;;;0.40;99.90;;;;;;5036435;28;20025;-90
2020/12/05 06:30:46;;;;;;;7.03;4.60;;;0.40;99.90;;;;;;5052366;28;20098;-89
2020/12/05 06:33:38;;;;;;;7.22;4.65;;;0.40;99.90;;;;;;5054019;28;20025;-89
2020/12/05 06:36:28;;;;;;;6.78;4.00;;;0.40;99.90;;;;;;5054315;28;20079;-89
2020/12/05 06:39:18;;;;;;;7.30;4.35;;;0.40;99.90;;;;;;5052782;28;20024;-89
2020/12/05 06:41:52;;;;;;;6.88;4.68;;;0.40;99.90;;;;;;5053994;28;20067;-89
2020/12/05 06:44:35;;;;;;;7.70;4.85;;;0.40;99.90;;;;;;5036187;28;20033;-89
2020/12/05 06:47:06;;;;;;;6.18;4.03;;;0.40;99.90;;;;;;5053774;28;20025;-89
2020/12/05 06:49:37;;;;;;;6.53;4.28;;;0.30;99.90;;;;;;5052582;28;20053;-89
2020/12/05 06:52:22;;;;;;;6.53;4.30;;;0.40;99.90;;;;;;5052667;28;20036;-89
2020/12/05 06:54:56;;;;;;;8.02;4.68;;;0.40;99.90;;;;;;5053687;28;20465;-89
2020/12/05 06:57:24;;;;;;;8.07;4.80;;;0.40;99.90;;;;;;5052569;28;20036;-89
2020/12/05 06:59:51;;;;;;;7.38;4.68;;;0.40;99.90;;;;;;5052441;28;20087;-90
2020/12/05 07:02:30;;;;;;;7.55;4.95;;;0.50;99.90;;;;;;5052731;28;20380;-89
2020/12/05 07:05:18;;;;;;;9.55;5.10;;;0.50;99.90;;;;;;5052759;28;20032;-89
2020/12/05 07:07:50;;;;;;;7.22;4.65;;;0.60;99.90;;;;;;5053708;28;20021;-88
2020/12/05 07:10:17;;;;;;;7.28;4.72;;;0.60;99.90;;;;;;5054868;28;20477;-89
2020/12/05 07:12:43;;;;;;;8.43;5.10;;;0.70;99.90;;;;;;5056333;28;20029;-89
2020/12/05 07:15:28;;;;;;;9.30;5.10;;;0.70;99.90;;;;;;5057467;28;20029;-89
2020/12/05 07:17:55;;;;;;;8.10;4.78;;;0.80;99.90;;;;;;5055906;28;20025;-89
2020/12/05 07:20:22;;;;;;;7.25;5.07;;;0.80;99.90;;;;;;5057274;28;20025;-89
2020/12/05 07:22:52;;;;;;;7.63;5.00;;;0.80;99.90;;;;;;5039121;28;20115;-89
2020/12/05 07:25:19;;;;;;;8.38;5.28;;;0.90;99.90;;;;;;5056108;28;20029;-89
2020/12/05 07:27:46;;;;;;;6.45;4.93;;;0.90;99.90;;;;;;5055883;28;20025;-89
2020/12/05 07:30:12;;;;;;;10.00;5.22;;;0.90;99.90;;;;;;5055913;28;20025;-91
2020/12/05 07:32:40;;;;;;;7.38;4.93;;;1.00;99.90;;;;;;5055814;28;20032;-89
2020/12/05 07:35:08;;;;;;;8.77;5.63;;;1.00;99.90;;;;;;5056793;28;20025;-89
2020/12/05 07:37:34;;;;;;;8.27;4.78;;;1.00;99.90;;;;;;5055963;28;20056;-89
2020/12/05 07:40:01;;;;;;;6.40;4.63;;;1.00;99.90;;;;;;5039661;28;20546;-90
2020/12/05 07:42:34;;;;;;;7.25;4.63;;;1.00;99.90;;;;;;5055698;28;20031;-89
2020/12/05 07:45:08;;;;;;;7.63;4.93;;;1.10;99.90;;;;;;5055900;28;20175;-89
2020/12/05 07:47:34;;;;;;;8.07;5.60;;;1.10;99.90;;;;;;5055184;28;20017;-90
2020/12/05 07:50:01;;;;;;;8.45;5.50;;;1.10;99.90;;;;;;5055760;28;20350;-90
2020/12/05 07:52:27;;;;;;;6.43;4.60;;;1.10;99.90;;;;;;5038855;28;20039;-90
2020/12/05 07:55:00;;;;;;;8.02;5.05;;;1.20;99.90;;;;;;5055813;28;20055;-90
2020/12/05 07:57:28;;;;;;;8.85;5.75;;;1.20;99.90;;;;;;5055393;28;20017;-90
2020/12/05 08:00:09;;;;;;;7.10;4.80;;;1.20;99.90;;;;;;5055498;28;20112;-91
2020/12/05 08:02:35;;;;;;;8.05;5.18;;;1.30;99.90;;;;;;5056496;28;20021;-91
2020/12/05 08:05:09;;;;;;;6.90;4.50;;;1.20;99.90;;;;;;5055479;28;20025;-91
2020/12/05 08:07:45;;;;;;;8.05;5.38;;;1.20;99.90;;;;;;5038768;28;20055;-90
2020/12/05 08:10:12;;;;;;;8.43;5.50;;;1.30;99.90;;;;;;5055486;28;20052;-90
2020/12/05 08:12:44;;;;;;;7.70;5.38;;;1.20;99.90;;;;;;5055176;28;20053;-90
2020/12/05 08:15:22;;;;;;;8.20;5.25;;;1.20;99.90;;;;;;5056001;28;20064;-91
2020/12/05 08:17:52;;;;;;;8.27;5.43;;;1.20;99.90;;;;;;5054613;28;20044;-90
2020/12/05 08:20:19;;;;;;;9.88;5.60;;;1.30;99.90;;;;;;5051682;28;20028;-91
2020/12/05 08:22:52;;;;;;;7.38;5.50;;;1.30;99.90;;;;;;5036444;28;20049;-90
2020/12/05 08:25:30;;;;;;;8.13;5.38;;;1.40;99.90;;;;;;5052697;28;20013;-90
2020/12/05 08:28:05;;;;;;;10.75;6.15;;;1.50;99.90;;;;;;5052400;28;20071;-90
2020/12/05 08:30:32;;;;;;;8.15;5.50;;;1.60;99.90;;;;;;5052249;28;20037;-89
2020/12/05 08:33:02;;;;;;;8.85;6.40;;;1.70;99.90;;;;;;5051697;28;20037;-89
2020/12/05 08:35:32;;;;;;;9.43;5.90;;;1.80;99.90;;;;;;5050690;28;20387;-90
2020/12/05 08:38:01;;;;;;;8.93;6.40;;;1.80;99.90;;;;;;5051949;28;20056;-90
2020/12/05 08:40:28;;;;;;;9.02;6.72;;;1.80;99.90;;;;;;5049773;28;20020;-89
2020/12/05 08:43:06;;;;;;;;;;;;;;;;;;;;;
2020/12/05 08:45:38;;;;;;;9.43;6.47;;;1.90;99.90;;;;;;5051342;28;20016;-89
2020/12/05 08:48:14;;;;;;;9.68;6.72;;;2.00;99.90;;;;;;5051308;28;20048;-89
2020/12/05 08:50:41;;;;;;;11.98;8.10;;;2.10;99.90;;;;;;5052858;28;20116;-88
2020/12/05 08:53:09;;;;;;;9.60;7.43;;;2.20;99.90;;;;;;5051961;28;20039;-89
2020/12/05 08:55:37;;;;;;;14.70;10.13;;;2.40;99.90;;;;;;5052912;28;20025;-89
2020/12/05 08:58:04;;;;;;;12.27;9.52;;;3.30;99.90;;;;;;5051654;28;20484;-88
2020/12/05 09:00:35;;;;;;;9.85;7.40;;;4.80;99.90;;;;;;5051613;28;20048;-89
2020/12/05 09:03:04;;;;;;;9.90;6.55;;;6.10;99.90;;;;;;5049580;28;20032;-89
2020/12/05 09:05:30;;;;;;;10.40;6.30;;;7.20;99.90;;;;;;5035452;28;20047;-89
2020/12/05 09:08:01;;;;;;;9.48;5.63;;;8.30;98.80;;;;;;5051338;28;20044;-90
2020/12/05 09:10:28;;;;;;;7.47;5.03;;;9.30;97.20;;;;;;5034318;28;20495;-89
2020/12/05 09:13:07;;;;;;;6.68;4.85;;;10.10;96.10;;;;;;5052321;28;20021;-89
2020/12/05 09:15:33;;;;;;;8.07;5.03;;;10.80;95.00;;;;;;5051078;28;20476;-89
2020/12/05 09:17:59;;;;;;;8.82;5.93;;;11.30;94.10;;;;;;5052426;28;20067;-89
2020/12/05 09:20:25;;;;;;;5.72;4.32;;;11.70;93.20;;;;;;5051162;28;20017;-89
2020/12/05 09:22:57;;;;;;;7.07;5.05;;;12.10;92.80;;;;;;5052114;28;20025;-90
2020/12/05 09:25:27;;;;;;;9.15;4.90;;;12.40;92.30;;;;;;5049072;28;20116;-89
2020/12/05 09:27:52;;;;;;;6.82;4.45;;;12.60;91.50;;;;;;5052296;28;20025;-90
2020/12/05 09:30:18;;;;;;;5.63;3.83;;;12.70;91.20;;;;;;5051325;28;20525;-90
2020/12/05 09:32:46;;;;;;;5.47;4.40;;;13.00;90.80;;;;;;5050341;28;20021;-89
2020/12/05 09:35:17;;;;;;;6.43;4.22;;;13.10;90.80;;;;;;5051397;28;20082;-89
2020/12/05 09:37:43;;;;;;;6.07;4.00;;;13.30;90.40;;;;;;5051184;28;20120;-89
2020/12/05 09:40:12;;;;;;;7.53;4.40;;;13.50;90.60;;;;;;5052135;28;20025;-89
2020/12/05 09:42:39;;;;;;;6.05;4.22;;;13.60;90.00;;;;;;5047790;28;20083;-89
2020/12/05 09:45:06;;;;;;;6.35;3.88;;;13.80;89.80;;;;;;5050741;28;20029;-90
2020/12/05 09:47:33;;;;;;;5.15;3.63;;;14.00;89.10;;;;;;5033174;28;20029;-89
2020/12/05 09:49:59;;;;;;;5.03;3.67;;;14.30;87.30;;;;;;5034265;28;20033;-89
2020/12/05 09:52:25;;;;;;;5.93;3.83;;;14.60;86.80;;;;;;5050802;28;20492;-89
2020/12/05 09:54:52;;;;;;;4.93;3.30;;;14.70;86.40;;;;;;5052625;28;20025;-90
2020/12/05 09:57:18;;;;;;;6.97;3.20;;;14.90;88.50;;;;;;5050905;28;20025;-89
2020/12/05 09:59:44;;;;;;;3.65;2.55;;;15.20;88.80;;;;;;5050590;28;20261;-89
2020/12/05 10:02:11;;;;;;;4.65;3.17;;;15.50;88.90;;;;;;5050665;28;20039;-89
2020/12/05 10:04:38;;;;;;;3.90;2.83;;;15.80;84.00;;;;;;5034368;28;20048;-90
2020/12/05 10:07:04;;;;;;;4.85;3.10;;;16.00;81.90;;;;;;5051905;28;20028;-90
2020/12/05 10:09:30;;;;;;;4.72;3.45;;;16.00;81.60;;;;;;5050606;28;20021;-90
2020/12/05 10:11:56;;;;;;;4.45;3.20;;;15.90;78.70;;;;;;5050330;28;20381;-89
2020/12/05 10:14:22;;;;;;;6.25;3.90;;;15.80;79.10;;;;;;5050801;28;20021;-90
2020/12/05 10:16:47;;;;;;;4.43;3.15;;;15.80;76.70;;;;;;5050801;28;20025;-89
2020/12/05 10:19:13;;;;;;;4.97;3.20;;;15.70;77.60;;;;;;5049546;28;20036;-89
2020/12/05 10:21:39;;;;;;;4.05;2.60;;;15.70;77.50;;;;;;5049505;28;20032;-90
2020/12/05 10:24:08;;;;;;;3.97;2.58;;;15.80;78.20;;;;;;5049538;28;20428;-89
2020/12/05 10:26:35;;;;;;;3.85;2.38;;;15.80;76.70;;;;;;5049807;28;20048;-89
2020/12/05 10:29:01;;;;;;;4.70;2.40;;;15.80;77.60;;;;;;5033804;28;20025;-89
2020/12/05 10:31:29;;;;;;;3.63;2.60;;;15.90;77.20;;;;;;5049774;28;20033;-89
2020/12/05 10:33:55;;;;;;;4.38;2.40;;;16.20;77.00;;;;;;5049632;28;20025;-89
2020/12/05 10:36:20;;;;;;;3.67;2.67;;;16.40;76.40;;;;;;5049718;28;20079;-89
2020/12/05 10:38:48;;;;;;;3.92;2.72;;;16.40;72.60;;;;;;5049077;28;20021;-90
2020/12/05 10:41:14;;;;;;;3.63;2.55;;;16.30;72.20;;;;;;5050060;28;20029;-89
2020/12/05 10:43:41;;;;;;;4.38;2.80;;;16.30;71.30;;;;;;5051096;28;20104;-88
2020/12/05 10:46:06;;;;;;;4.00;2.90;;;16.40;72.40;;;;;;5053528;28;20051;-88
2020/12/05 10:48:32;;;;;;;4.85;2.80;;;16.40;67.90;;;;;;5052802;28;20504;-90
2020/12/05 10:51:02;;;;;;;4.25;2.80;;;16.30;68.30;;;;;;5055081;28;20048;-89
2020/12/05 10:53:29;;;;;;;2.83;2.13;;;16.40;68.30;;;;;;5053760;28;20086;-88
2020/12/05 10:55:55;;;;;;;4.90;2.53;;;16.40;70.30;;;;;;5036355;28;20068;-89
2020/12/05 10:58:21;;;;;;;3.63;2.38;;;16.30;69.80;;;;;;5054878;28;20068;-90
2020/12/05 11:00:49;;;;;;;5.00;3.17;;;16.50;71.00;;;;;;5052884;28;20151;-89
2020/12/05 11:03:15;;;;;;;4.63;3.00;;;16.80;68.40;;;;;;5054753;28;20025;-89
2020/12/05 11:05:41;;;;;;;3.30;2.17;;;16.90;65.90;;;;;;5053090;28;20493;-89
2020/12/05 11:08:06;;;;;;;3.45;2.42;;;17.00;67.40;;;;;;5052310;28;20025;-89
2020/12/05 11:10:32;;;;;;;3.63;2.30;;;17.20;66.40;;;;;;5052943;28;20051;-89
2020/12/05 11:13:22;;;;;;;3.95;2.45;;;17.30;67.80;;;;;;5036681;28;20473;-89
2020/12/05 11:15:48;;;;;;;3.92;2.22;;;17.40;65.70;;;;;;5052355;28;20025;-86
2020/12/05 11:18:14;;;;;;;3.28;2.10;;;17.40;65.90;;;;;;5052381;28;20112;-88
2020/12/05 11:20:40;;;;;;;3.25;2.10;;;17.40;65.10;;;;;;5052475;28;20447;-90
2020/12/05 11:23:06;;;;;;;3.58;2.45;;;17.30;64.80;;;;;;5052447;28;20028;-88
2020/12/05 11:25:32;;;;;;;3.28;2.13;;;17.20;64.90;;;;;;5052494;28;20500;-89
2020/12/05 11:27:58;;;;;;;5.72;2.35;;;16.80;62.80;;;;;;5051707;28;20124;-89
2020/12/05 11:30:23;;;;;;;2.83;1.83;;;16.30;64.80;;;;;;5034298;28;20131;-89
2020/12/05 11:32:49;;;;;;;3.47;2.53;;;16.20;64.60;;;;;;5035030;28;20458;-90
2020/12/05 11:35:15;;;;;;;5.03;2.35;;;15.90;65.00;;;;;;5048292;28;20017;-89
2020/12/05 11:37:41;;;;;;;4.32;2.22;;;15.80;65.60;;;;;;5049927;28;20028;-89
2020/12/05 11:40:07;;;;;;;3.40;2.30;;;15.80;65.80;;;;;;5051502;28;20037;-87
2020/12/05 11:42:34;;;;;;;3.47;2.10;;;15.20;66.40;;;;;;5034855;28;20040;-89
2020/12/05 11:45:01;;;;;;;5.35;2.40;;;13.60;67.20;;;;;;5052540;28;20017;-87
2020/12/05 11:47:27;;;;;;;3.88;2.13;;;12.10;72.40;;;;;;5052300;28;20427;-88
2020/12/05 11:49:53;;;;;;;3.95;2.33;;;11.00;77.40;;;;;;5052513;28;20045;-89
2020/12/05 11:52:19;;;;;;;5.30;2.63;;;10.20;82.60;;;;;;5052898;28;20033;-88
2020/12/05 11:54:46;;;;;;;3.78;2.20;;;9.70;85.60;;;;;;5052114;28;20036;-88
2020/12/05 11:57:12;;;;;;;3.30;2.13;;;9.30;88.40;;;;;;5052717;28;20033;-88
2020/12/05 11:59:45;;;;;;;5.43;2.50;;;9.00;90.60;;;;;;5052541;28;20027;-86
2020/12/05 12:02:12;;;;;;;5.10;2.45;;;8.90;91.60;;;;;;5052699;28;20037;-89
2020/12/05 12:04:41;;;;;;;3.10;2.33;;;8.70;92.00;;;;;;5052936;28;20032;-87
2020/12/05 12:07:11;;;;;;;5.20;2.40;;;8.60;93.00;;;;;;5051748;28;20056;-88
2020/12/05 12:09:37;;;;;;;4.93;3.22;;;8.50;93.00;;;;;;5051928;28;20029;-88
2020/12/05 12:12:03;;;;;;;4.13;2.60;;;8.40;93.60;;;;;;5052755;28;20037;-88
2020/12/05 12:14:29;;;;;;;4.03;2.83;;;8.30;94.40;;;;;;5052734;28;20025;-88
2020/12/05 12:16:55;;;;;;;4.57;2.83;;;8.20;94.50;;;;;;5052617;28;20055;-88
2020/12/05 12:19:27;;;;;;;5.85;2.72;;;8.20;95.00;;;;;;5052268;28;20025;-90
2020/12/05 12:21:53;;;;;;;3.97;2.78;;;8.10;95.10;;;;;;5052950;28;20031;-88
2020/12/05 12:24:19;;;;;;;5.22;2.88;;;8.00;94.90;;;;;;5052471;28;20029;-89
2020/12/05 12:26:47;;;;;;;3.20;2.15;;;7.90;95.10;;;;;;5052674;28;20516;-88
2020/12/05 12:29:16;;;;;;;5.05;2.92;;;7.90;95.20;;;;;;5052908;28;20047;-88
2020/12/05 12:31:43;;;;;;;3.33;2.30;;;7.80;95.40;;;;;;5047084;28;20060;-88
2020/12/05 12:34:09;;;;;;;3.75;2.25;;;7.80;95.70;;;;;;5052664;28;20467;-86
2020/12/05 12:36:36;;;;;;;4.45;2.50;;;7.80;95.40;;;;;;5052623;28;20028;-87
2020/12/05 12:39:03;;;;;;;5.55;2.85;;;7.80;95.60;;;;;;5052482;28;20025;-88
2020/12/05 12:41:29;;;;;;;4.13;2.60;;;7.70;95.70;;;;;;5053979;28;20044;-87
2020/12/05 12:43:56;;;;;;;3.60;2.60;;;7.70;95.90;;;;;;5052973;28;20028;-89
2020/12/05 12:46:24;;;;;;;4.75;2.35;;;7.70;96.20;;;;;;5054330;28;20017;-88
2020/12/05 12:48:50;;;;;;;4.70;2.90;;;7.80;96.20;;;;;;5053203;28;20084;-88
2020/12/05 12:51:22;;;;;;;4.13;2.70;;;7.90;95.30;;;;;;5053537;28;20040;-90
2020/12/05 12:53:56;;;;;;;4.25;2.28;;;8.10;94.80;;;;;;5051828;28;20036;-88
2020/12/05 12:56:25;;;;;;;4.25;2.67;;;8.10;95.20;;;;;;5050369;28;20127;-88
2020/12/05 12:58:51;;;;;;;4.72;2.85;;;8.20;95.20;;;;;;5052612;28;20380;-89
2020/12/05 13:01:21;;;;;;;3.78;2.63;;;8.20;95.00;;;;;;5051689;28;20025;-88